Buoy 44893

sailwx.info

Track history (hours):
 
Tides and Currents Weather Stations Pressure Air Temp Water Temp Dewpoint Dewpoint Depression Visibility Wind Speed Wind Dir Waves Ship Positions

Drifting buoy 44893

Last reported at 2018-Jun-18 14:30 UTC. Time now 2018-Jun-18 17:18 UTC.
Position N 34°05' W 045°19'.

Water temperature 25.1 ° C

Date/timePositionNaut miles runAvg speedWind from/ knotsBaromVisibWave heightAir tempDewpointWater temp
2018-Jun-18 14:30N 34°05' W 045°19'0 0.0 25.1
2018-Jun-18 14:15N 34°05' W 045°19'1 1.6 25.1
2018-Jun-18 13:45N 34°04' W 045°20'0 0.0 25.1
2018-Jun-18 13:30N 34°04' W 045°20'0 0.0 25.1
2018-Jun-18 13:00N 34°04' W 045°20'0 0.0 25.1
2018-Jun-18 12:45N 34°04' W 045°20'0 0.0 25.1
2018-Jun-18 12:30N 34°04' W 045°20'0 0.0 25.0
2018-Jun-18 12:00N 34°04' W 045°20'0 0.0 25.0
2018-Jun-18 11:30N 34°04' W 045°20'1 5.2 25.0
2018-Jun-18 11:15N 34°03' W 045°20'0 0.0 25.0
2018-Jun-18 11:00N 34°03' W 045°20'0 0.4 25.0
2018-Jun-18 09:45N 34°03' W 045°21'0 0.0 25.0
2018-Jun-18 09:00N 34°03' W 045°21'1 2.4 25.0
2018-Jun-18 08:45N 34°02' W 045°21'0 0.0 25.0
2018-Jun-18 08:00N 34°02' W 045°21'0 0.0 25.0
2018-Jun-18 07:15N 34°02' W 045°21'313.8 25.1
2018-Jun-18 07:00N 34°00' W 045°24'0 0.0 25.1
2018-Jun-18 01:30N 34°00' W 045°24'0 0.0 25.1
2018-Jun-18 01:15N 34°00' W 045°24'0 0.7 25.1
2018-Jun-18 00:30N 34°00' W 045°23'0 0.0 25.2
2018-Jun-18 00:15N 34°00' W 045°23'0 0.0 25.2
2018-Jun-17 23:45N 34°00' W 045°23'0 0.0 25.2
2018-Jun-17 23:30N 34°00' W 045°23'0 0.0 25.2
2018-Jun-17 23:00N 34°00' W 045°23'0 2.0 25.2
2018-Jun-17 22:45N 34°00' W 045°24'0 0.0 25.2
2018-Jun-17 22:30N 34°00' W 045°24'0 0.0 25.2
2018-Jun-17 21:45N 34°00' W 045°24'0 2.0 25.2
2018-Jun-17 21:30N 34°00' W 045°23'0 0.0 25.2
2018-Jun-17 21:15N 34°00' W 045°23'0 0.0 25.2
2018-Jun-17 20:30N 34°00' W 045°23'0 0.0 25.2
2018-Jun-17 20:15N 34°00' W 045°23'0 0.0 25.2
2018-Jun-17 20:00N 34°00' W 045°23'1 4.6 25.2
2018-Jun-17 19:45N 33°59' W 045°25'1 1.2 25.2
2018-Jun-17 18:45N 34°00' W 045°26'0 0.0 25.2
2018-Jun-17 18:30N 34°00' W 045°26'2 1.0 25.2
2018-Jun-17 17:00N 33°59' W 045°27'0 0.0 25.3
2018-Jun-17 14:15N 33°59' W 045°27'0 2.0 25.2
2018-Jun-17 14:00N 33°59' W 045°28'0 0.0 25.2
2018-Jun-17 13:15N 33°59' W 045°28'0 0.0 25.1
2018-Jun-17 13:00N 33°59' W 045°28'0 0.0 25.1
2018-Jun-17 12:30N 33°59' W 045°28'1 3.1 25.1
2018-Jun-17 12:15N 33°58' W 045°28'0 0.0 25.1
2018-Jun-17 11:45N 33°58' W 045°28'1 2.4 25.1
2018-Jun-17 11:30N 33°59' W 045°28'1 4.6 25.1
2018-Jun-17 11:15N 33°58' W 045°29'0 0.0 25.1
2018-Jun-17 10:15N 33°58' W 045°29'1 3.1 25.1
2018-Jun-17 10:00N 33°58' W 045°30'0 0.0 25.1
2018-Jun-17 09:45N 33°58' W 045°30'1 3.1 25.1
2018-Jun-17 09:30N 33°58' W 045°29'0 0.0 25.1
2018-Jun-17 09:15N 33°58' W 045°29'1 3.1 25.1
2018-Jun-17 09:00N 33°58' W 045°30'1 1.2 25.1
2018-Jun-17 08:30N 33°57' W 045°30'0 0.0 25.1
2018-Jun-17 08:00N 33°57' W 045°30'0 0.0 25.1
2018-Jun-17 07:45N 33°57' W 045°30'312.5 25.1
2018-Jun-17 07:30N 33°55' W 045°32'0 0.0 25.1
2018-Jun-17 07:15N 33°55' W 045°32'0 0.0 25.1
2018-Jun-17 05:45N 33°55' W 045°32'0 0.0 25.1
2018-Jun-17 05:30N 33°55' W 045°32'0 0.1 25.1
2018-Jun-17 00:45N 33°55' W 045°32'0 0.0 25.1
2018-Jun-17 00:00N 33°55' W 045°32'1 1.3 25.1
2018-Jun-16 23:15N 33°55' W 045°33'0 0.0 25.1
2018-Jun-16 23:00N 33°55' W 045°33'0 0.0 25.1
2018-Jun-16 22:15N 33°55' W 045°33'1 3.1 25.1
2018-Jun-16 22:00N 33°54' W 045°32'0 0.0 25.1
2018-Jun-16 21:45N 33°54' W 045°32'1 3.1 25.2
2018-Jun-16 21:30N 33°55' W 045°33'0 0.0 25.2
2018-Jun-16 20:45N 33°55' W 045°33'1 3.1 25.2
2018-Jun-16 20:30N 33°55' W 045°32'0 0.0 25.2
2018-Jun-16 20:15N 33°55' W 045°32'1 0.5 25.2
2018-Jun-16 19:00N 33°55' W 045°32'1 3.1 25.2
2018-Jun-16 18:45N 33°55' W 045°33'0 0.0 25.2
2018-Jun-16 17:15N 33°55' W 045°33'3 1.1 25.2
2018-Jun-16 14:30N 33°55' W 045°37'0 0.0 25.1
2018-Jun-16 14:15N 33°55' W 045°37'0 0.0 25.1
2018-Jun-16 13:30N 33°55' W 045°37'0 0.0 25.0
2018-Jun-16 13:15N 33°55' W 045°37'1 2.3 25.0
2018-Jun-16 12:45N 33°55' W 045°38'0 0.0 25.0
2018-Jun-16 12:30N 33°55' W 045°38'1 1.2 25.0
2018-Jun-16 12:00N 33°55' W 045°38'2 7.7 25.0
2018-Jun-16 11:45N 33°54' W 045°40'0 0.5 25.0
2018-Jun-16 10:45N 33°54' W 045°39'0 1.0 25.0
2018-Jun-16 10:15N 33°54' W 045°40'1 3.1 24.9
2018-Jun-16 10:00N 33°53' W 045°40'1 0.8 24.9
2018-Jun-16 09:15N 33°53' W 045°40'0 0.0 24.9
2018-Jun-16 09:00N 33°53' W 045°40'1 4.7 24.9
2018-Jun-16 08:45N 33°52' W 045°41'1 4.7 24.9
2018-Jun-16 08:30N 33°53' W 045°40'1 4.7 24.9
2018-Jun-16 08:15N 33°52' W 045°41'1 0.8 24.9
2018-Jun-16 07:30N 33°52' W 045°41'0 0.0 24.9
2018-Jun-16 06:45N 33°52' W 045°41'0 0.0 25.0
2018-Jun-16 06:00N 33°52' W 045°41'414.5 25.0
2018-Jun-16 05:45N 33°48' W 045°42'1 0.2 25.0
2018-Jun-16 01:00N 33°49' W 045°41'0 0.0 25.0
2018-Jun-16 00:30N 33°49' W 045°41'0 0.0 25.0
2018-Jun-16 00:15N 33°49' W 045°41'0 0.0 25.0
2018-Jun-15 23:30N 33°49' W 045°41'0 0.0 25.0
2018-Jun-15 23:15N 33°49' W 045°41'1 1.2 25.0
2018-Jun-15 22:45N 33°48' W 045°41'0 0.0 25.0
2018-Jun-15 22:30N 33°48' W 045°41'0 0.0 25.1
2018-Jun-15 22:15N 33°48' W 045°41'1 1.2 25.1
2018-Jun-15 21:45N 33°49' W 045°41'0 2.0 25.1
2018-Jun-15 21:30N 33°49' W 045°42'0 0.0 25.1
2018-Jun-15 21:15N 33°49' W 045°42'0 0.0 25.1
2018-Jun-15 21:00N 33°49' W 045°42'0 0.0 25.1
2018-Jun-15 20:45N 33°49' W 045°42'0 0.0 25.1
2018-Jun-15 20:30N 33°49' W 045°42'1 0.6 25.1
2018-Jun-15 19:15N 33°48' W 045°43'1 4.0 25.2
2018-Jun-15 19:00N 33°48' W 045°44'0 0.0 25.2
2018-Jun-15 17:30N 33°48' W 045°44'0 0.0 25.2
2018-Jun-15 17:15N 33°48' W 045°44'3 1.0 25.2
2018-Jun-15 13:45N 33°46' W 045°47'0 0.0 25.0
2018-Jun-15 13:15N 33°46' W 045°47'0 0.0 25.0
2018-Jun-15 13:00N 33°46' W 045°47'3 2.8 25.0
2018-Jun-15 12:00N 33°44' W 045°49'0 0.0 25.0
2018-Jun-15 11:30N 33°44' W 045°49'0 0.0 25.0
2018-Jun-15 10:30N 33°44' W 045°49'1 2.4 24.9
2018-Jun-15 10:15N 33°43' W 045°49'0 0.0 24.9
2018-Jun-15 09:30N 33°43' W 045°49'1 5.2 24.9
2018-Jun-15 09:15N 33°42' W 045°50'1 2.4 24.9
2018-Jun-15 09:00N 33°43' W 045°50'1 2.4 24.9
2018-Jun-15 08:45N 33°42' W 045°50'1 0.6 24.9
2018-Jun-15 07:45N 33°41' W 045°50'0 0.0 24.9
2018-Jun-15 07:30N 33°41' W 045°50'1 4.7 24.9
2018-Jun-15 07:15N 33°42' W 045°49'0 0.0 24.9
2018-Jun-15 07:00N 33°42' W 045°49'3 3.4 24.9
2018-Jun-15 06:00N 33°39' W 045°50'0 0.0 25.0
2018-Jun-15 01:30N 33°39' W 045°50'1 3.1 25.0
2018-Jun-15 01:15N 33°38' W 045°50'0 1.0 25.0
2018-Jun-15 00:45N 33°38' W 045°49'0 0.0 25.1
2018-Jun-15 00:30N 33°38' W 045°49'1 0.8 25.1
2018-Jun-14 23:45N 33°38' W 045°49'0 0.0 25.1
2018-Jun-14 23:30N 33°38' W 045°49'0 2.0 25.0
2018-Jun-14 23:15N 33°38' W 045°50'0 0.0 25.0
2018-Jun-14 23:00N 33°38' W 045°50'0 0.0 25.0
2018-Jun-14 22:45N 33°38' W 045°50'1 1.0 25.1
2018-Jun-14 22:00N 33°37' W 045°50'1 4.8 25.1
2018-Jun-14 21:45N 33°36' W 045°50'0 0.0 25.1
2018-Jun-14 21:30N 33°36' W 045°50'0 0.0 25.1
2018-Jun-14 21:00N 33°36' W 045°50'0 0.0 25.1
2018-Jun-14 20:00N 33°36' W 045°50'0 0.0 25.1
2018-Jun-14 19:30N 33°36' W 045°50'0 2.0 25.1
2018-Jun-14 19:15N 33°36' W 045°50'3 1.8 25.1
2018-Jun-14 17:45N 33°35' W 045°53'0 0.0 25.1
2018-Jun-14 17:30N 33°35' W 045°53'1 0.4 25.1
2018-Jun-14 14:15N 33°34' W 045°53'0 0.0 24.9
2018-Jun-14 14:00N 33°34' W 045°53'0 0.0 24.9
2018-Jun-14 13:30N 33°34' W 045°53'0 0.0 24.9
2018-Jun-14 13:15N 33°34' W 045°53'1 1.0 24.9
2018-Jun-14 12:30N 33°33' W 045°53'0 0.0 24.9
2018-Jun-14 12:15N 33°33' W 045°53'0 0.0 24.8
2018-Jun-14 12:00N 33°33' W 045°53'2 6.2 24.8
2018-Jun-14 11:45N 33°32' W 045°55'0 0.0 24.8
2018-Jun-14 10:30N 33°32' W 045°55'0 0.0 24.8
2018-Jun-14 09:45N 33°32' W 045°55'1 3.1 24.8
2018-Jun-14 09:30N 33°31' W 045°55'1 3.1 24.8
2018-Jun-14 09:15N 33°31' W 045°56'0 0.0 24.8
2018-Jun-14 08:00N 33°31' W 045°56'0 0.0 24.8
2018-Jun-14 07:45N 33°31' W 045°56'1 2.0 24.8
2018-Jun-14 07:30N 33°31' W 045°55'5 4.3 24.8
2018-Jun-14 06:15N 33°25' W 045°56'0 0.0 24.8
2018-Jun-14 01:45N 33°25' W 045°56'1 0.7 24.9
2018-Jun-14 01:00N 33°25' W 045°56'0 0.0 24.9
2018-Jun-14 00:15N 33°25' W 045°56'1 4.0 24.9
2018-Jun-14 00:00N 33°25' W 045°55'0 0.0 24.9
2018-Jun-13 23:45N 33°25' W 045°55'0 0.0 24.9
2018-Jun-13 23:30N 33°25' W 045°55'1 2.0 24.9
2018-Jun-13 23:15N 33°25' W 045°55'0 0.0 25.0
2018-Jun-13 22:30N 33°25' W 045°55'0 0.0 25.0
2018-Jun-13 22:15N 33°25' W 045°55'1 4.0 25.0
2018-Jun-13 22:00N 33°25' W 045°56'1 1.2 25.0
2018-Jun-13 21:30N 33°26' W 045°56'1 2.4 25.0
2018-Jun-13 21:15N 33°25' W 045°56'1 0.7 25.1
2018-Jun-13 20:30N 33°25' W 045°56'0 0.0 25.0
2018-Jun-13 19:45N 33°25' W 045°56'2 6.5 25.0
2018-Jun-13 19:30N 33°25' W 045°58'0 0.0 25.1
2018-Jun-13 19:15N 33°25' W 045°58'0 0.0 25.1
2018-Jun-13 18:00N 33°25' W 045°58'415.8 25.1
2018-Jun-13 17:45N 33°23' W 046°02'0 0.0 25.0
2018-Jun-13 14:30N 33°23' W 046°02'1 1.7 24.9
2018-Jun-13 13:45N 33°22' W 046°03'0 0.0 24.8
2018-Jun-13 13:00N 33°22' W 046°03'0 0.0 24.8
2018-Jun-13 12:45N 33°22' W 046°03'1 2.0 24.8
2018-Jun-13 12:30N 33°22' W 046°04'0 0.0 24.8
2018-Jun-13 12:15N 33°22' W 046°04'1 5.2 24.8
2018-Jun-13 12:00N 33°20' W 046°03'0 0.0 24.7
2018-Jun-13 11:45N 33°20' W 046°03'0 0.0 24.7
2018-Jun-13 11:15N 33°20' W 046°03'1 2.0 24.7
2018-Jun-13 11:00N 33°20' W 046°04'0 0.0 24.7
2018-Jun-13 10:45N 33°20' W 046°04'1 2.0 24.7
2018-Jun-13 10:30N 33°20' W 046°04'1 2.0 24.7
2018-Jun-13 10:15N 33°20' W 046°05'1 4.8 24.7
2018-Jun-13 10:00N 33°19' W 046°05'1 3.1 24.7
2018-Jun-13 09:45N 33°19' W 046°04'0 0.0 24.7
2018-Jun-13 08:15N 33°19' W 046°04'1 3.1 24.7
2018-Jun-13 08:00N 33°18' W 046°05'0 0.0 24.7
2018-Jun-13 06:30N 33°18' W 046°05'2 6.3 24.7
2018-Jun-13 06:15N 33°17' W 046°06'1 0.2 24.7
2018-Jun-13 01:30N 33°16' W 046°07'0 0.0 24.8
2018-Jun-13 01:15N 33°16' W 046°07'1 1.0 24.8
2018-Jun-13 00:30N 33°16' W 046°06'1 2.4 24.8
2018-Jun-13 00:15N 33°16' W 046°06'0 0.0 24.8
2018-Jun-13 00:00N 33°16' W 046°06'1 4.7 24.8
2018-Jun-12 23:45N 33°17' W 046°07'1 0.6 24.8
2018-Jun-12 22:45N 33°16' W 046°07'0 0.0 24.8
2018-Jun-12 22:30N 33°16' W 046°07'1 2.0 24.8
2018-Jun-12 22:15N 33°16' W 046°08'1 2.0 24.8
2018-Jun-12 22:00N 33°16' W 046°07'0 0.0 24.8
2018-Jun-12 21:45N 33°16' W 046°07'2 2.6 24.8
2018-Jun-12 21:00N 33°15' W 046°09'0 0.0 24.8
2018-Jun-12 20:45N 33°15' W 046°09'0 0.0 24.8
2018-Jun-12 20:30N 33°15' W 046°09'1 1.6 24.8
2018-Jun-12 19:45N 33°14' W 046°10'0 0.0 24.8
2018-Jun-12 19:30N 33°14' W 046°10'3 2.1 24.8
2018-Jun-12 18:00N 33°13' W 046°13'0 0.0 24.8
2018-Jun-12 14:15N 33°13' W 046°13'1 2.0 24.7
2018-Jun-12 14:00N 33°13' W 046°14'1 1.0 24.7
2018-Jun-12 13:15N 33°12' W 046°14'0 0.0 24.6
2018-Jun-12 13:00N 33°12' W 046°14'1 2.0 24.6
2018-Jun-12 12:45N 33°12' W 046°14'1 4.0 24.6
2018-Jun-12 12:30N 33°12' W 046°15'0 0.0 24.6
2018-Jun-12 12:15N 33°12' W 046°15'1 1.0 24.6
2018-Jun-12 11:30N 33°11' W 046°16'0 0.0 24.6
2018-Jun-12 11:00N 33°11' W 046°16'1 2.0 24.6
2018-Jun-12 10:45N 33°11' W 046°16'2 7.7 24.6
2018-Jun-12 10:30N 33°10' W 046°18'0 0.0 24.6
2018-Jun-12 10:15N 33°10' W 046°18'0 0.0 24.6
2018-Jun-12 09:00N 33°10' W 046°18'0 0.0 24.7
2018-Jun-12 08:45N 33°10' W 046°18'0 0.0 24.7
2018-Jun-12 08:30N 33°10' W 046°18'1 4.8 24.7
2018-Jun-12 08:15N 33°09' W 046°18'0 0.0 24.7
2018-Jun-12 07:15N 33°09' W 046°18'0 0.0 24.8
2018-Jun-12 07:00N 33°09' W 046°18'1 2.0 24.8
2018-Jun-12 06:45N 33°09' W 046°19'417.8 24.8
2018-Jun-12 06:30N 33°05' W 046°20'1 0.1 24.8
2018-Jun-12 00:45N 33°05' W 046°20'1 1.6 24.9
2018-Jun-12 00:15N 33°05' W 046°21'0 0.0 24.9
2018-Jun-12 00:00N 33°05' W 046°21'0 0.0 24.9
2018-Jun-11 23:15N 33°05' W 046°21'0 0.0 25.0
2018-Jun-11 23:00N 33°05' W 046°21'1 1.2 25.0
2018-Jun-11 22:30N 33°05' W 046°21'0 0.0 25.1
2018-Jun-11 22:15N 33°05' W 046°21'1 1.3 25.1
2018-Jun-11 21:30N 33°05' W 046°22'1 1.0 25.1
2018-Jun-11 20:45N 33°05' W 046°23'0 0.0 25.2
2018-Jun-11 20:30N 33°05' W 046°23'1 1.2 25.2
2018-Jun-11 20:00N 33°04' W 046°23'2 6.5 25.1
2018-Jun-11 19:45N 33°04' W 046°25'4 2.6 25.1
2018-Jun-11 18:15N 33°02' W 046°29'0 0.0 25.1
2018-Jun-11 18:00N 33°02' W 046°29'0 0.0 25.1
2018-Jun-11 13:30N 33°02' W 046°29'1 2.3 24.9
2018-Jun-11 13:00N 33°01' W 046°30'1 2.0 24.9
2018-Jun-11 12:45N 33°01' W 046°29'1 0.8 24.9
2018-Jun-11 12:00N 33°01' W 046°29'1 4.7 24.7
2018-Jun-11 11:45N 33°00' W 046°31'2 2.7 24.7
2018-Jun-11 11:00N 32°58' W 046°32'0 0.0 24.7
2018-Jun-11 09:15N 32°58' W 046°32'1 1.6 24.6
2018-Jun-11 08:30N 32°57' W 046°32'0 0.0 24.7
2018-Jun-11 07:45N 32°57' W 046°32'0 0.0 24.7
2018-Jun-11 07:30N 32°57' W 046°32'2 3.3 24.7
2018-Jun-11 06:45N 32°55' W 046°32'0 0.0 24.7
2018-Jun-11 01:15N 32°55' W 046°32'0 0.0 24.8
2018-Jun-11 01:00N 32°55' W 046°32'1 1.0 24.9
2018-Jun-11 00:30N 32°55' W 046°32'1 3.1 24.8
2018-Jun-11 00:15N 32°54' W 046°32'0 0.0 24.9
2018-Jun-10 23:30N 32°54' W 046°32'0 0.0 24.9
2018-Jun-10 23:15N 32°54' W 046°32'0 0.0 24.9
2018-Jun-10 22:45N 32°54' W 046°32'0 0.0 24.9
2018-Jun-10 22:30N 32°54' W 046°32'0 0.0 24.9
2018-Jun-10 22:00N 32°54' W 046°32'0 0.0 25.0
2018-Jun-10 21:00N 32°54' W 046°32'0 0.0 25.0
2018-Jun-10 20:30N 32°54' W 046°32'1 3.1 25.0
2018-Jun-10 20:15N 32°53' W 046°33'1 3.1 25.0
2018-Jun-10 20:00N 32°54' W 046°34'0 0.0 25.0
2018-Jun-10 19:30N 32°54' W 046°34'0 0.0 25.0
2018-Jun-10 18:30N 32°54' W 046°34'414.1 25.0
2018-Jun-10 18:15N 32°54' W 046°38'0 0.0 25.0
2018-Jun-10 14:00N 32°54' W 046°38'1 2.4 24.7
2018-Jun-10 13:45N 32°53' W 046°38'0 0.0 24.7
2018-Jun-10 13:15N 32°53' W 046°38'1 2.0 24.7
2018-Jun-10 13:00N 32°53' W 046°38'1 0.7 24.7
2018-Jun-10 12:15N 32°53' W 046°39'1 2.4 24.6
2018-Jun-10 12:00N 32°53' W 046°39'2 3.9 24.6
2018-Jun-10 11:30N 32°52' W 046°41'0 0.0 24.6
2018-Jun-10 11:15N 32°52' W 046°41'0 0.0 24.6
2018-Jun-10 09:45N 32°52' W 046°41'0 0.0 24.6
2018-Jun-10 09:30N 32°52' W 046°41'0 0.0 24.6
2018-Jun-10 08:45N 32°52' W 046°41'1 2.4 24.6
2018-Jun-10 08:30N 32°51' W 046°41'0 0.0 24.6
2018-Jun-10 08:15N 32°51' W 046°41'0 0.0 24.6
2018-Jun-10 08:00N 32°51' W 046°41'3 3.2 24.6
2018-Jun-10 07:00N 32°48' W 046°42'1 0.2 24.6
2018-Jun-10 01:30N 32°48' W 046°41'0 0.0 24.7
2018-Jun-10 00:45N 32°48' W 046°41'1 0.5 24.7
2018-Jun-09 23:45N 32°48' W 046°41'0 0.0 24.8
2018-Jun-09 23:15N 32°48' W 046°41'1 2.4 24.8
2018-Jun-09 23:00N 32°47' W 046°41'0 0.0 24.8
2018-Jun-09 22:30N 32°47' W 046°41'0 0.0 24.8
2018-Jun-09 22:15N 32°47' W 046°41'0 0.0 24.8
2018-Jun-09 22:00N 32°47' W 046°41'0 0.0 24.8
2018-Jun-09 21:30N 32°47' W 046°41'1 2.0 24.8
2018-Jun-09 21:15N 32°47' W 046°42'0 0.0 24.8
2018-Jun-09 21:00N 32°47' W 046°42'0 0.0 24.8
2018-Jun-09 20:45N 32°47' W 046°42'2 3.3 24.8
2018-Jun-09 20:15N 32°47' W 046°44'0 0.0 24.9
2018-Jun-09 18:45N 32°47' W 046°44'1 2.0 24.9
2018-Jun-09 18:30N 32°47' W 046°43'2 1.3 24.9
2018-Jun-09 17:00N 32°47' W 046°46'0 0.0 24.9
2018-Jun-09 16:45N 32°47' W 046°46'1 0.3 24.9
2018-Jun-09 14:15N 32°46' W 046°45'1 3.1 24.9
2018-Jun-09 14:00N 32°47' W 046°46'1 2.4 24.9
2018-Jun-09 13:30N 32°46' W 046°46'0 0.0 24.9
2018-Jun-09 13:15N 32°46' W 046°46'1 0.7 24.8
2018-Jun-09 12:30N 32°46' W 046°46'0 0.0 24.8
2018-Jun-09 12:00N 32°46' W 046°46'1 2.4 24.8
2018-Jun-09 11:45N 32°45' W 046°46'1 2.4 24.8
2018-Jun-09 11:30N 32°44' W 046°46'0 0.0 24.8
2018-Jun-09 10:15N 32°44' W 046°46'1 3.1 24.8
2018-Jun-09 10:00N 32°44' W 046°47'1 4.7 24.8
2018-Jun-09 09:45N 32°43' W 046°48'0 0.0 24.8
2018-Jun-09 09:00N 32°43' W 046°48'1 2.4 24.8
2018-Jun-09 08:45N 32°43' W 046°48'0 0.0 24.8
2018-Jun-09 08:30N 32°43' W 046°48'1 0.5 24.8
2018-Jun-09 07:15N 32°42' W 046°48'312.2 24.8
2018-Jun-09 07:00N 32°39' W 046°49'0 0.0 24.8
2018-Jun-09 01:45N 32°39' W 046°49'1 1.3 24.9
2018-Jun-09 01:00N 32°39' W 046°50'0 0.0 25.0
2018-Jun-09 00:15N 32°39' W 046°50'0 0.0 24.9
2018-Jun-09 00:00N 32°39' W 046°50'1 1.0 24.9
2018-Jun-08 23:30N 32°39' W 046°50'0 0.0 25.0
2018-Jun-08 23:15N 32°39' W 046°50'1 2.4 25.0
2018-Jun-08 23:00N 32°38' W 046°50'0 0.0 25.1
2018-Jun-08 22:30N 32°38' W 046°50'0 0.0 25.1
2018-Jun-08 21:45N 32°38' W 046°50'0 0.0 25.3
2018-Jun-08 21:30N 32°38' W 046°50'0 0.0 25.3
2018-Jun-08 21:15N 32°38' W 046°50'1 1.0 25.3
2018-Jun-08 20:30N 32°38' W 046°51'0 0.0 25.3
2018-Jun-08 20:15N 32°38' W 046°51'1 2.4 25.4
2018-Jun-08 19:45N 32°37' W 046°52'1 1.2 25.4
2018-Jun-08 18:45N 32°37' W 046°53'2 1.0 25.4
2018-Jun-08 17:15N 32°37' W 046°55'0 0.0 25.2
2018-Jun-08 17:00N 32°37' W 046°55'0 0.0 25.1
2018-Jun-08 14:30N 32°37' W 046°55'   24.9
Track history (hours):
 
Tides and Currents Weather Stations Pressure Air Temp Water Temp Dewpoint Dewpoint Depression Visibility Wind Speed Wind Dir Waves Ship Positions

Drifting buoy 44893

Last reported at 2018-Jun-18 14:30 UTC. Time now 2018-Jun-18 17:18 UTC.
Position N 34°05' W 045°19'.

Water temperature 25.1 ° C

Date/timePositionNaut miles runAvg speedWind from/ knotsBaromVisibWave heightAir tempDewpointWater temp
2018-Jun-18 14:30N 34°05' W 045°19'0 0.0 25.1
2018-Jun-18 14:15N 34°05' W 045°19'1 1.6 25.1
2018-Jun-18 13:45N 34°04' W 045°20'0 0.0 25.1
2018-Jun-18 13:30N 34°04' W 045°20'0 0.0 25.1
2018-Jun-18 13:00N 34°04' W 045°20'0 0.0 25.1
2018-Jun-18 12:45N 34°04' W 045°20'0 0.0 25.1
2018-Jun-18 12:30N 34°04' W 045°20'0 0.0 25.0
2018-Jun-18 12:00N 34°04' W 045°20'0 0.0 25.0
2018-Jun-18 11:30N 34°04' W 045°20'1 5.2 25.0
2018-Jun-18 11:15N 34°03' W 045°20'0 0.0 25.0
2018-Jun-18 11:00N 34°03' W 045°20'0 0.4 25.0
2018-Jun-18 09:45N 34°03' W 045°21'0 0.0 25.0
2018-Jun-18 09:00N 34°03' W 045°21'1 2.4 25.0
2018-Jun-18 08:45N 34°02' W 045°21'0 0.0 25.0
2018-Jun-18 08:00N 34°02' W 045°21'0 0.0 25.0
2018-Jun-18 07:15N 34°02' W 045°21'313.8 25.1
2018-Jun-18 07:00N 34°00' W 045°24'0 0.0 25.1
2018-Jun-18 01:30N 34°00' W 045°24'0 0.0 25.1
2018-Jun-18 01:15N 34°00' W 045°24'0 0.7 25.1
2018-Jun-18 00:30N 34°00' W 045°23'0 0.0 25.2
2018-Jun-18 00:15N 34°00' W 045°23'0 0.0 25.2
2018-Jun-17 23:45N 34°00' W 045°23'0 0.0 25.2
2018-Jun-17 23:30N 34°00' W 045°23'0 0.0 25.2
2018-Jun-17 23:00N 34°00' W 045°23'0 2.0 25.2
2018-Jun-17 22:45N 34°00' W 045°24'0 0.0 25.2
2018-Jun-17 22:30N 34°00' W 045°24'0 0.0 25.2
2018-Jun-17 21:45N 34°00' W 045°24'0 2.0 25.2
2018-Jun-17 21:30N 34°00' W 045°23'0 0.0 25.2
2018-Jun-17 21:15N 34°00' W 045°23'0 0.0 25.2
2018-Jun-17 20:30N 34°00' W 045°23'0 0.0 25.2
2018-Jun-17 20:15N 34°00' W 045°23'0 0.0 25.2
2018-Jun-17 20:00N 34°00' W 045°23'1 4.6 25.2
2018-Jun-17 19:45N 33°59' W 045°25'1 1.2 25.2
2018-Jun-17 18:45N 34°00' W 045°26'0 0.0 25.2
2018-Jun-17 18:30N 34°00' W 045°26'2 1.0 25.2
2018-Jun-17 17:00N 33°59' W 045°27'0 0.0 25.3
2018-Jun-17 14:15N 33°59' W 045°27'0 2.0 25.2
2018-Jun-17 14:00N 33°59' W 045°28'0 0.0 25.2
2018-Jun-17 13:15N 33°59' W 045°28'0 0.0 25.1
2018-Jun-17 13:00N 33°59' W 045°28'0 0.0 25.1
2018-Jun-17 12:30N 33°59' W 045°28'1 3.1 25.1
2018-Jun-17 12:15N 33°58' W 045°28'0 0.0 25.1
2018-Jun-17 11:45N 33°58' W 045°28'1 2.4 25.1
2018-Jun-17 11:30N 33°59' W 045°28'1 4.6 25.1
2018-Jun-17 11:15N 33°58' W 045°29'0 0.0 25.1
2018-Jun-17 10:15N 33°58' W 045°29'1 3.1 25.1
2018-Jun-17 10:00N 33°58' W 045°30'0 0.0 25.1
2018-Jun-17 09:45N 33°58' W 045°30'1 3.1 25.1
2018-Jun-17 09:30N 33°58' W 045°29'0 0.0 25.1
2018-Jun-17 09:15N 33°58' W 045°29'1 3.1 25.1
2018-Jun-17 09:00N 33°58' W 045°30'1 1.2 25.1
2018-Jun-17 08:30N 33°57' W 045°30'0 0.0 25.1
2018-Jun-17 08:00N 33°57' W 045°30'0 0.0 25.1
2018-Jun-17 07:45N 33°57' W 045°30'312.5 25.1
2018-Jun-17 07:30N 33°55' W 045°32'0 0.0 25.1
2018-Jun-17 07:15N 33°55' W 045°32'0 0.0 25.1
2018-Jun-17 05:45N 33°55' W 045°32'0 0.0 25.1
2018-Jun-17 05:30N 33°55' W 045°32'0 0.1 25.1
2018-Jun-17 00:45N 33°55' W 045°32'0 0.0 25.1
2018-Jun-17 00:00N 33°55' W 045°32'1 1.3 25.1
2018-Jun-16 23:15N 33°55' W 045°33'0 0.0 25.1
2018-Jun-16 23:00N 33°55' W 045°33'0 0.0 25.1
2018-Jun-16 22:15N 33°55' W 045°33'1 3.1 25.1
2018-Jun-16 22:00N 33°54' W 045°32'0 0.0 25.1
2018-Jun-16 21:45N 33°54' W 045°32'1 3.1 25.2
2018-Jun-16 21:30N 33°55' W 045°33'0 0.0 25.2
2018-Jun-16 20:45N 33°55' W 045°33'1 3.1 25.2
2018-Jun-16 20:30N 33°55' W 045°32'0 0.0 25.2
2018-Jun-16 20:15N 33°55' W 045°32'1 0.5 25.2
2018-Jun-16 19:00N 33°55' W 045°32'1 3.1 25.2
2018-Jun-16 18:45N 33°55' W 045°33'0 0.0 25.2
2018-Jun-16 17:15N 33°55' W 045°33'3 1.1 25.2
2018-Jun-16 14:30N 33°55' W 045°37'0 0.0 25.1
2018-Jun-16 14:15N 33°55' W 045°37'0 0.0 25.1
2018-Jun-16 13:30N 33°55' W 045°37'0 0.0 25.0
2018-Jun-16 13:15N 33°55' W 045°37'1 2.3 25.0
2018-Jun-16 12:45N 33°55' W 045°38'0 0.0 25.0
2018-Jun-16 12:30N 33°55' W 045°38'1 1.2 25.0
2018-Jun-16 12:00N 33°55' W 045°38'2 7.7 25.0
2018-Jun-16 11:45N 33°54' W 045°40'0 0.5 25.0
2018-Jun-16 10:45N 33°54' W 045°39'0 1.0 25.0
2018-Jun-16 10:15N 33°54' W 045°40'1 3.1 24.9
2018-Jun-16 10:00N 33°53' W 045°40'1 0.8 24.9
2018-Jun-16 09:15N 33°53' W 045°40'0 0.0 24.9
2018-Jun-16 09:00N 33°53' W 045°40'1 4.7 24.9
2018-Jun-16 08:45N 33°52' W 045°41'1 4.7 24.9
2018-Jun-16 08:30N 33°53' W 045°40'1 4.7 24.9
2018-Jun-16 08:15N 33°52' W 045°41'1 0.8 24.9
2018-Jun-16 07:30N 33°52' W 045°41'0 0.0 24.9
2018-Jun-16 06:45N 33°52' W 045°41'0 0.0 25.0
2018-Jun-16 06:00N 33°52' W 045°41'414.5 25.0
2018-Jun-16 05:45N 33°48' W 045°42'1 0.2 25.0
2018-Jun-16 01:00N 33°49' W 045°41'0 0.0 25.0
2018-Jun-16 00:30N 33°49' W 045°41'0 0.0 25.0
2018-Jun-16 00:15N 33°49' W 045°41'0 0.0 25.0
2018-Jun-15 23:30N 33°49' W 045°41'0 0.0 25.0
2018-Jun-15 23:15N 33°49' W 045°41'1 1.2 25.0
2018-Jun-15 22:45N 33°48' W 045°41'0 0.0 25.0
2018-Jun-15 22:30N 33°48' W 045°41'0 0.0 25.1
2018-Jun-15 22:15N 33°48' W 045°41'1 1.2 25.1
2018-Jun-15 21:45N 33°49' W 045°41'0 2.0 25.1
2018-Jun-15 21:30N 33°49' W 045°42'0 0.0 25.1
2018-Jun-15 21:15N 33°49' W 045°42'0 0.0 25.1
2018-Jun-15 21:00N 33°49' W 045°42'0 0.0 25.1
2018-Jun-15 20:45N 33°49' W 045°42'0 0.0 25.1
2018-Jun-15 20:30N 33°49' W 045°42'1 0.6 25.1
2018-Jun-15 19:15N 33°48' W 045°43'1 4.0 25.2
2018-Jun-15 19:00N 33°48' W 045°44'0 0.0 25.2
2018-Jun-15 17:30N 33°48' W 045°44'0 0.0 25.2
2018-Jun-15 17:15N 33°48' W 045°44'3 1.0 25.2
2018-Jun-15 13:45N 33°46' W 045°47'0 0.0 25.0
2018-Jun-15 13:15N 33°46' W 045°47'0 0.0 25.0
2018-Jun-15 13:00N 33°46' W 045°47'3 2.8 25.0
2018-Jun-15 12:00N 33°44' W 045°49'0 0.0 25.0
2018-Jun-15 11:30N 33°44' W 045°49'0 0.0 25.0
2018-Jun-15 10:30N 33°44' W 045°49'1 2.4 24.9
2018-Jun-15 10:15N 33°43' W 045°49'0 0.0 24.9
2018-Jun-15 09:30N 33°43' W 045°49'1 5.2 24.9
2018-Jun-15 09:15N 33°42' W 045°50'1 2.4 24.9
2018-Jun-15 09:00N 33°43' W 045°50'1 2.4 24.9
2018-Jun-15 08:45N 33°42' W 045°50'1 0.6 24.9
2018-Jun-15 07:45N 33°41' W 045°50'0 0.0 24.9
2018-Jun-15 07:30N 33°41' W 045°50'1 4.7 24.9
2018-Jun-15 07:15N 33°42' W 045°49'0 0.0 24.9
2018-Jun-15 07:00N 33°42' W 045°49'3 3.4 24.9
2018-Jun-15 06:00N 33°39' W 045°50'0 0.0 25.0
2018-Jun-15 01:30N 33°39' W 045°50'1 3.1 25.0
2018-Jun-15 01:15N 33°38' W 045°50'0 1.0 25.0
2018-Jun-15 00:45N 33°38' W 045°49'0 0.0 25.1
2018-Jun-15 00:30N 33°38' W 045°49'1 0.8 25.1
2018-Jun-14 23:45N 33°38' W 045°49'0 0.0 25.1
2018-Jun-14 23:30N 33°38' W 045°49'0 2.0 25.0
2018-Jun-14 23:15N 33°38' W 045°50'0 0.0 25.0
2018-Jun-14 23:00N 33°38' W 045°50'0 0.0 25.0
2018-Jun-14 22:45N 33°38' W 045°50'1 1.0 25.1
2018-Jun-14 22:00N 33°37' W 045°50'1 4.8 25.1
2018-Jun-14 21:45N 33°36' W 045°50'0 0.0 25.1
2018-Jun-14 21:30N 33°36' W 045°50'0 0.0 25.1
2018-Jun-14 21:00N 33°36' W 045°50'0 0.0 25.1
2018-Jun-14 20:00N 33°36' W 045°50'0 0.0 25.1
2018-Jun-14 19:30N 33°36' W 045°50'0 2.0 25.1
2018-Jun-14 19:15N 33°36' W 045°50'3 1.8 25.1
2018-Jun-14 17:45N 33°35' W 045°53'0 0.0 25.1
2018-Jun-14 17:30N 33°35' W 045°53'1 0.4 25.1
2018-Jun-14 14:15N 33°34' W 045°53'0 0.0 24.9
2018-Jun-14 14:00N 33°34' W 045°53'0 0.0 24.9
2018-Jun-14 13:30N 33°34' W 045°53'0 0.0 24.9
2018-Jun-14 13:15N 33°34' W 045°53'1 1.0 24.9
2018-Jun-14 12:30N 33°33' W 045°53'0 0.0 24.9
2018-Jun-14 12:15N 33°33' W 045°53'0 0.0 24.8
2018-Jun-14 12:00N 33°33' W 045°53'2 6.2 24.8
2018-Jun-14 11:45N 33°32' W 045°55'0 0.0 24.8
2018-Jun-14 10:30N 33°32' W 045°55'0 0.0 24.8
2018-Jun-14 09:45N 33°32' W 045°55'1 3.1 24.8
2018-Jun-14 09:30N 33°31' W 045°55'1 3.1 24.8
2018-Jun-14 09:15N 33°31' W 045°56'0 0.0 24.8
2018-Jun-14 08:00N 33°31' W 045°56'0 0.0 24.8
2018-Jun-14 07:45N 33°31' W 045°56'1 2.0 24.8
2018-Jun-14 07:30N 33°31' W 045°55'5 4.3 24.8
2018-Jun-14 06:15N 33°25' W 045°56'0 0.0 24.8
2018-Jun-14 01:45N 33°25' W 045°56'1 0.7 24.9
2018-Jun-14 01:00N 33°25' W 045°56'0 0.0 24.9
2018-Jun-14 00:15N 33°25' W 045°56'1 4.0 24.9
2018-Jun-14 00:00N 33°25' W 045°55'0 0.0 24.9
2018-Jun-13 23:45N 33°25' W 045°55'0 0.0 24.9
2018-Jun-13 23:30N 33°25' W 045°55'1 2.0 24.9
2018-Jun-13 23:15N 33°25' W 045°55'0 0.0 25.0
2018-Jun-13 22:30N 33°25' W 045°55'0 0.0 25.0
2018-Jun-13 22:15N 33°25' W 045°55'1 4.0 25.0
2018-Jun-13 22:00N 33°25' W 045°56'1 1.2 25.0
2018-Jun-13 21:30N 33°26' W 045°56'1 2.4 25.0
2018-Jun-13 21:15N 33°25' W 045°56'1 0.7 25.1
2018-Jun-13 20:30N 33°25' W 045°56'0 0.0 25.0
2018-Jun-13 19:45N 33°25' W 045°56'2 6.5 25.0
2018-Jun-13 19:30N 33°25' W 045°58'0 0.0 25.1
2018-Jun-13 19:15N 33°25' W 045°58'0 0.0 25.1
2018-Jun-13 18:00N 33°25' W 045°58'415.8 25.1
2018-Jun-13 17:45N 33°23' W 046°02'0 0.0 25.0
2018-Jun-13 14:30N 33°23' W 046°02'1 1.7 24.9
2018-Jun-13 13:45N 33°22' W 046°03'0 0.0 24.8
2018-Jun-13 13:00N 33°22' W 046°03'0 0.0 24.8
2018-Jun-13 12:45N 33°22' W 046°03'1 2.0 24.8
2018-Jun-13 12:30N 33°22' W 046°04'0 0.0 24.8
2018-Jun-13 12:15N 33°22' W 046°04'1 5.2 24.8
2018-Jun-13 12:00N 33°20' W 046°03'0 0.0 24.7
2018-Jun-13 11:45N 33°20' W 046°03'0 0.0 24.7
2018-Jun-13 11:15N 33°20' W 046°03'1 2.0 24.7
2018-Jun-13 11:00N 33°20' W 046°04'0 0.0 24.7
2018-Jun-13 10:45N 33°20' W 046°04'1 2.0 24.7
2018-Jun-13 10:30N 33°20' W 046°04'1 2.0 24.7
2018-Jun-13 10:15N 33°20' W 046°05'1 4.8 24.7
2018-Jun-13 10:00N 33°19' W 046°05'1 3.1 24.7
2018-Jun-13 09:45N 33°19' W 046°04'0 0.0 24.7
2018-Jun-13 08:15N 33°19' W 046°04'1 3.1 24.7
2018-Jun-13 08:00N 33°18' W 046°05'0 0.0 24.7
2018-Jun-13 06:30N 33°18' W 046°05'2 6.3 24.7
2018-Jun-13 06:15N 33°17' W 046°06'1 0.2 24.7
2018-Jun-13 01:30N 33°16' W 046°07'0 0.0 24.8
2018-Jun-13 01:15N 33°16' W 046°07'1 1.0 24.8
2018-Jun-13 00:30N 33°16' W 046°06'1 2.4 24.8
2018-Jun-13 00:15N 33°16' W 046°06'0 0.0 24.8
2018-Jun-13 00:00N 33°16' W 046°06'1 4.7 24.8
2018-Jun-12 23:45N 33°17' W 046°07'1 0.6 24.8
2018-Jun-12 22:45N 33°16' W 046°07'0 0.0 24.8
2018-Jun-12 22:30N 33°16' W 046°07'1 2.0 24.8
2018-Jun-12 22:15N 33°16' W 046°08'1 2.0 24.8
2018-Jun-12 22:00N 33°16' W 046°07'0 0.0 24.8
2018-Jun-12 21:45N 33°16' W 046°07'2 2.6 24.8
2018-Jun-12 21:00N 33°15' W 046°09'0 0.0 24.8
2018-Jun-12 20:45N 33°15' W 046°09'0 0.0 24.8
2018-Jun-12 20:30N 33°15' W 046°09'1 1.6 24.8
2018-Jun-12 19:45N 33°14' W 046°10'0 0.0 24.8
2018-Jun-12 19:30N 33°14' W 046°10'3 2.1 24.8
2018-Jun-12 18:00N 33°13' W 046°13'0 0.0 24.8
2018-Jun-12 14:15N 33°13' W 046°13'1 2.0 24.7
2018-Jun-12 14:00N 33°13' W 046°14'1 1.0 24.7
2018-Jun-12 13:15N 33°12' W 046°14'0 0.0 24.6
2018-Jun-12 13:00N 33°12' W 046°14'1 2.0 24.6
2018-Jun-12 12:45N 33°12' W 046°14'1 4.0 24.6
2018-Jun-12 12:30N 33°12' W 046°15'0 0.0 24.6
2018-Jun-12 12:15N 33°12' W 046°15'1 1.0 24.6
2018-Jun-12 11:30N 33°11' W 046°16'0 0.0 24.6
2018-Jun-12 11:00N 33°11' W 046°16'1 2.0 24.6
2018-Jun-12 10:45N 33°11' W 046°16'2 7.7 24.6
2018-Jun-12 10:30N 33°10' W 046°18'0 0.0 24.6
2018-Jun-12 10:15N 33°10' W 046°18'0 0.0 24.6
2018-Jun-12 09:00N 33°10' W 046°18'0 0.0 24.7
2018-Jun-12 08:45N 33°10' W 046°18'0 0.0 24.7
2018-Jun-12 08:30N 33°10' W 046°18'1 4.8 24.7
2018-Jun-12 08:15N 33°09' W 046°18'0 0.0 24.7
2018-Jun-12 07:15N 33°09' W 046°18'0 0.0 24.8
2018-Jun-12 07:00N 33°09' W 046°18'1 2.0 24.8
2018-Jun-12 06:45N 33°09' W 046°19'417.8 24.8
2018-Jun-12 06:30N 33°05' W 046°20'1 0.1 24.8
2018-Jun-12 00:45N 33°05' W 046°20'1 1.6 24.9
2018-Jun-12 00:15N 33°05' W 046°21'0 0.0 24.9
2018-Jun-12 00:00N 33°05' W 046°21'0 0.0 24.9
2018-Jun-11 23:15N 33°05' W 046°21'0 0.0 25.0
2018-Jun-11 23:00N 33°05' W 046°21'1 1.2 25.0
2018-Jun-11 22:30N 33°05' W 046°21'0 0.0 25.1
2018-Jun-11 22:15N 33°05' W 046°21'1 1.3 25.1
2018-Jun-11 21:30N 33°05' W 046°22'1 1.0 25.1
2018-Jun-11 20:45N 33°05' W 046°23'0 0.0 25.2
2018-Jun-11 20:30N 33°05' W 046°23'1 1.2 25.2
2018-Jun-11 20:00N 33°04' W 046°23'2 6.5 25.1
2018-Jun-11 19:45N 33°04' W 046°25'4 2.6 25.1
2018-Jun-11 18:15N 33°02' W 046°29'0 0.0 25.1
2018-Jun-11 18:00N 33°02' W 046°29'0 0.0 25.1
2018-Jun-11 13:30N 33°02' W 046°29'1 2.3 24.9
2018-Jun-11 13:00N 33°01' W 046°30'1 2.0 24.9
2018-Jun-11 12:45N 33°01' W 046°29'1 0.8 24.9
2018-Jun-11 12:00N 33°01' W 046°29'1 4.7 24.7
2018-Jun-11 11:45N 33°00' W 046°31'2 2.7 24.7
2018-Jun-11 11:00N 32°58' W 046°32'0 0.0 24.7
2018-Jun-11 09:15N 32°58' W 046°32'1 1.6 24.6
2018-Jun-11 08:30N 32°57' W 046°32'0 0.0 24.7
2018-Jun-11 07:45N 32°57' W 046°32'0 0.0 24.7
2018-Jun-11 07:30N 32°57' W 046°32'2 3.3 24.7
2018-Jun-11 06:45N 32°55' W 046°32'0 0.0 24.7
2018-Jun-11 01:15N 32°55' W 046°32'0 0.0 24.8
2018-Jun-11 01:00N 32°55' W 046°32'1 1.0 24.9
2018-Jun-11 00:30N 32°55' W 046°32'1 3.1 24.8
2018-Jun-11 00:15N 32°54' W 046°32'0 0.0 24.9
2018-Jun-10 23:30N 32°54' W 046°32'0 0.0 24.9
2018-Jun-10 23:15N 32°54' W 046°32'0 0.0 24.9
2018-Jun-10 22:45N 32°54' W 046°32'0 0.0 24.9
2018-Jun-10 22:30N 32°54' W 046°32'0 0.0 24.9
2018-Jun-10 22:00N 32°54' W 046°32'0 0.0 25.0
2018-Jun-10 21:00N 32°54' W 046°32'0 0.0 25.0
2018-Jun-10 20:30N 32°54' W 046°32'1 3.1 25.0
2018-Jun-10 20:15N 32°53' W 046°33'1 3.1 25.0
2018-Jun-10 20:00N 32°54' W 046°34'0 0.0 25.0
2018-Jun-10 19:30N 32°54' W 046°34'0 0.0 25.0
2018-Jun-10 18:30N 32°54' W 046°34'414.1 25.0
2018-Jun-10 18:15N 32°54' W 046°38'0 0.0 25.0
2018-Jun-10 14:00N 32°54' W 046°38'1 2.4 24.7
2018-Jun-10 13:45N 32°53' W 046°38'0 0.0 24.7
2018-Jun-10 13:15N 32°53' W 046°38'1 2.0 24.7
2018-Jun-10 13:00N 32°53' W 046°38'1 0.7 24.7
2018-Jun-10 12:15N 32°53' W 046°39'1 2.4 24.6
2018-Jun-10 12:00N 32°53' W 046°39'2 3.9 24.6
2018-Jun-10 11:30N 32°52' W 046°41'0 0.0 24.6
2018-Jun-10 11:15N 32°52' W 046°41'0 0.0 24.6
2018-Jun-10 09:45N 32°52' W 046°41'0 0.0 24.6
2018-Jun-10 09:30N 32°52' W 046°41'0 0.0 24.6
2018-Jun-10 08:45N 32°52' W 046°41'1 2.4 24.6
2018-Jun-10 08:30N 32°51' W 046°41'0 0.0 24.6
2018-Jun-10 08:15N 32°51' W 046°41'0 0.0 24.6
2018-Jun-10 08:00N 32°51' W 046°41'3 3.2 24.6
2018-Jun-10 07:00N 32°48' W 046°42'1 0.2 24.6
2018-Jun-10 01:30N 32°48' W 046°41'0 0.0 24.7
2018-Jun-10 00:45N 32°48' W 046°41'1 0.5 24.7
2018-Jun-09 23:45N 32°48' W 046°41'0 0.0 24.8
2018-Jun-09 23:15N 32°48' W 046°41'1 2.4 24.8
2018-Jun-09 23:00N 32°47' W 046°41'0 0.0 24.8
2018-Jun-09 22:30N 32°47' W 046°41'0 0.0 24.8
2018-Jun-09 22:15N 32°47' W 046°41'0 0.0 24.8
2018-Jun-09 22:00N 32°47' W 046°41'0 0.0 24.8
2018-Jun-09 21:30N 32°47' W 046°41'1 2.0 24.8
2018-Jun-09 21:15N 32°47' W 046°42'0 0.0 24.8
2018-Jun-09 21:00N 32°47' W 046°42'0 0.0 24.8
2018-Jun-09 20:45N 32°47' W 046°42'2 3.3 24.8
2018-Jun-09 20:15N 32°47' W 046°44'0 0.0 24.9
2018-Jun-09 18:45N 32°47' W 046°44'1 2.0 24.9
2018-Jun-09 18:30N 32°47' W 046°43'2 1.3 24.9
2018-Jun-09 17:00N 32°47' W 046°46'0 0.0 24.9
2018-Jun-09 16:45N 32°47' W 046°46'1 0.3 24.9
2018-Jun-09 14:15N 32°46' W 046°45'1 3.1 24.9
2018-Jun-09 14:00N 32°47' W 046°46'1 2.4 24.9
2018-Jun-09 13:30N 32°46' W 046°46'0 0.0 24.9
2018-Jun-09 13:15N 32°46' W 046°46'1 0.7 24.8
2018-Jun-09 12:30N 32°46' W 046°46'0 0.0 24.8
2018-Jun-09 12:00N 32°46' W 046°46'1 2.4 24.8
2018-Jun-09 11:45N 32°45' W 046°46'1 2.4 24.8
2018-Jun-09 11:30N 32°44' W 046°46'0 0.0 24.8
2018-Jun-09 10:15N 32°44' W 046°46'1 3.1 24.8
2018-Jun-09 10:00N 32°44' W 046°47'1 4.7 24.8
2018-Jun-09 09:45N 32°43' W 046°48'0 0.0 24.8
2018-Jun-09 09:00N 32°43' W 046°48'1 2.4 24.8
2018-Jun-09 08:45N 32°43' W 046°48'0 0.0 24.8
2018-Jun-09 08:30N 32°43' W 046°48'1 0.5 24.8
2018-Jun-09 07:15N 32°42' W 046°48'312.2 24.8
2018-Jun-09 07:00N 32°39' W 046°49'0 0.0 24.8
2018-Jun-09 01:45N 32°39' W 046°49'1 1.3 24.9
2018-Jun-09 01:00N 32°39' W 046°50'0 0.0 25.0
2018-Jun-09 00:15N 32°39' W 046°50'0 0.0 24.9
2018-Jun-09 00:00N 32°39' W 046°50'1 1.0 24.9
2018-Jun-08 23:30N 32°39' W 046°50'0 0.0 25.0
2018-Jun-08 23:15N 32°39' W 046°50'1 2.4 25.0
2018-Jun-08 23:00N 32°38' W 046°50'0 0.0 25.1
2018-Jun-08 22:30N 32°38' W 046°50'0 0.0 25.1
2018-Jun-08 21:45N 32°38' W 046°50'0 0.0 25.3
2018-Jun-08 21:30N 32°38' W 046°50'0 0.0 25.3
2018-Jun-08 21:15N 32°38' W 046°50'1 1.0 25.3
2018-Jun-08 20:30N 32°38' W 046°51'0 0.0 25.3
2018-Jun-08 20:15N 32°38' W 046°51'1 2.4 25.4
2018-Jun-08 19:45N 32°37' W 046°52'1 1.2 25.4
2018-Jun-08 18:45N 32°37' W 046°53'2 1.0 25.4
2018-Jun-08 17:15N 32°37' W 046°55'0 0.0 25.2
2018-Jun-08 17:00N 32°37' W 046°55'0 0.0 25.1
2018-Jun-08 14:30N 32°37' W 046°55'   24.9

Dump ship's entire track history